sensor_id;sensor_type;location;lat;lon;timestamp;pressure;altitude;pressure_sealevel;temperature;humidity
69318;BME280;56457;52.190;4.440;2023-04-07T00:00:26;101677.69;;;8.38;100.00
69318;BME280;56457;52.190;4.440;2023-04-07T00:01:26;101685.47;;;8.35;100.00
69318;BME280;56457;52.190;4.440;2023-04-07T00:02:27;101681.97;;;8.33;100.00
69318;BME280;56457;52.190;4.440;2023-04-07T00:03:27;101684.53;;;8.30;100.00
69318;BME280;56457;52.190;4.440;2023-04-07T00:04:28;101679.28;;;8.28;100.00
69318;BME280;56457;52.190;4.440;2023-04-07T00:05:28;101678.34;;;8.25;100.00
69318;BME280;56457;52.190;4.440;2023-04-07T00:06:28;101677.47;;;8.24;100.00
69318;BME280;56457;52.190;4.440;2023-04-07T00:07:29;101680.03;;;8.21;100.00
69318;BME280;56457;52.190;4.440;2023-04-07T00:08:29;101670.38;;;8.16;100.00
69318;BME280;56457;52.190;4.440;2023-04-07T00:09:30;101674.72;;;8.15;100.00
69318;BME280;56457;52.190;4.440;2023-04-07T00:10:30;101677.31;;;8.14;100.00
69318;BME280;56457;52.190;4.440;2023-04-07T00:11:31;101676.38;;;8.10;100.00
69318;BME280;56457;52.190;4.440;2023-04-07T00:12:31;101671.09;;;8.07;100.00
69318;BME280;56457;52.190;4.440;2023-04-07T00:13:32;101677.16;;;8.04;100.00
69318;BME280;56457;52.190;4.440;2023-04-07T00:14:32;101671.91;;;8.01;100.00
69318;BME280;56457;52.190;4.440;2023-04-07T00:15:32;101678.81;;;7.99;100.00
69318;BME280;56457;52.190;4.440;2023-04-07T00:16:33;101677.94;;;7.99;100.00
69318;BME280;56457;52.190;4.440;2023-04-07T00:17:33;101683.16;;;7.97;100.00
69318;BME280;56457;52.190;4.440;2023-04-07T00:18:34;101681.41;;;7.98;100.00
69318;BME280;56457;52.190;4.440;2023-04-07T00:19:34;101678.78;;;7.96;100.00
69318;BME280;56457;52.190;4.440;2023-04-07T00:20:35;101683.94;;;7.93;100.00
69318;BME280;56457;52.190;4.440;2023-04-07T00:21:35;101682.19;;;7.94;100.00
69318;BME280;56457;52.190;4.440;2023-04-07T00:22:38;101678.69;;;7.90;100.00
69318;BME280;56457;52.190;4.440;2023-04-07T00:23:38;101680.41;;;7.90;100.00
69318;BME280;56457;52.190;4.440;2023-04-07T00:24:39;101680.44;;;7.91;100.00
69318;BME280;56457;52.190;4.440;2023-04-07T00:25:39;101683.94;;;7.93;100.00
69318;BME280;56457;52.190;4.440;2023-04-07T00:26:39;101676.97;;;7.92;100.00
69318;BME280;56457;52.190;4.440;2023-04-07T00:27:40;101676.97;;;7.94;100.00
69318;BME280;56457;52.190;4.440;2023-04-07T00:28:43;101685.66;;;7.91;100.00
69318;BME280;56457;52.190;4.440;2023-04-07T00:29:44;101687.38;;;7.89;100.00
69318;BME280;56457;52.190;4.440;2023-04-07T00:30:45;101680.44;;;7.91;100.00
69318;BME280;56457;52.190;4.440;2023-04-07T00:31:46;101678.69;;;7.92;100.00
69318;BME280;56457;52.190;4.440;2023-04-07T00:32:46;101677.84;;;7.93;100.00
69318;BME280;56457;52.190;4.440;2023-04-07T00:33:47;101682.09;;;7.86;100.00
69318;BME280;56457;52.190;4.440;2023-04-07T00:34:48;101681.22;;;7.87;100.00
69318;BME280;56457;52.190;4.440;2023-04-07T00:35:48;101683.84;;;7.89;100.00
69318;BME280;56457;52.190;4.440;2023-04-07T00:36:49;101680.34;;;7.87;100.00
69318;BME280;56457;52.190;4.440;2023-04-07T00:37:52;101682.09;;;7.88;100.00
69318;BME280;56457;52.190;4.440;2023-04-07T00:38:53;101683.84;;;7.89;100.00
69318;BME280;56457;52.190;4.440;2023-04-07T00:39:53;101687.31;;;7.86;100.00
69318;BME280;56457;52.190;4.440;2023-04-07T00:40:58;101679.47;;;7.85;100.00
69318;BME280;56457;52.190;4.440;2023-04-07T00:41:59;101687.28;;;7.83;100.00
69318;BME280;56457;52.190;4.440;2023-04-07T00:43:00;101689.88;;;7.83;100.00
69318;BME280;56457;52.190;4.440;2023-04-07T00:44:00;101684.63;;;7.81;100.00
69318;BME280;56457;52.190;4.440;2023-04-07T00:45:01;101686.41;;;7.84;100.00
69318;BME280;56457;52.190;4.440;2023-04-07T00:46:01;101689.84;;;7.81;100.00
69318;BME280;56457;52.190;4.440;2023-04-07T00:47:02;101682.84;;;7.80;100.00
69318;BME280;56457;52.190;4.440;2023-04-07T00:48:03;101688.91;;;7.78;100.00
69318;BME280;56457;52.190;4.440;2023-04-07T00:49:03;101683.72;;;7.79;100.00
69318;BME280;56457;52.190;4.440;2023-04-07T00:50:04;101688.91;;;7.76;100.00
69318;BME280;56457;52.190;4.440;2023-04-07T00:51:05;101691.53;;;7.76;100.00
69318;BME280;56457;52.190;4.440;2023-04-07T00:52:05;101695.91;;;7.79;100.00
69318;BME280;56457;52.190;4.440;2023-04-07T00:53:07;101695.03;;;7.78;100.00
69318;BME280;56457;52.190;4.440;2023-04-07T00:54:08;101693.28;;;7.79;100.00
69318;BME280;56457;52.190;4.440;2023-04-07T00:55:08;101689.03;;;7.84;100.00
69318;BME280;56457;52.190;4.440;2023-04-07T00:56:08;101693.31;;;7.82;100.00
69318;BME280;56457;52.190;4.440;2023-04-07T00:57:09;101695.03;;;7.78;100.00
69318;BME280;56457;52.190;4.440;2023-04-07T00:58:10;101700.22;;;7.77;100.00
69318;BME280;56457;52.190;4.440;2023-04-07T00:59:10;101693.28;;;7.77;100.00
69318;BME280;56457;52.190;4.440;2023-04-07T01:00:11;101691.53;;;7.78;100.00
69318;BME280;56457;52.190;4.440;2023-04-07T01:01:17;101698.50;;;7.77;100.00
69318;BME280;56457;52.190;4.440;2023-04-07T01:02:22;101702.03;;;7.81;100.00
69318;BME280;56457;52.190;4.440;2023-04-07T01:03:30;101705.56;;;7.83;100.00
69318;BME280;56457;52.190;4.440;2023-04-07T01:04:34;101702.09;;;7.84;100.00
69318;BME280;56457;52.190;4.440;2023-04-07T01:05:41;101703.88;;;7.88;100.00
69318;BME280;56457;52.190;4.440;2023-04-07T01:06:46;101699.59;;;7.90;100.00
69318;BME280;56457;52.190;4.440;2023-04-07T01:08:50;101702.22;;;7.93;100.00
69318;BME280;56457;52.190;4.440;2023-04-07T01:09:54;101700.56;;;7.97;100.00
69318;BME280;56457;52.190;4.440;2023-04-07T01:13:27;101703.28;;;8.04;100.00
69318;BME280;56457;52.190;4.440;2023-04-07T01:14:34;101704.16;;;8.05;100.00
69318;BME280;56457;52.190;4.440;2023-04-07T01:15:37;101698.06;;;8.04;100.00
69318;BME280;56457;52.190;4.440;2023-04-07T01:16:41;101705.06;;;8.07;100.00
69318;BME280;56457;52.190;4.440;2023-04-07T01:17:44;101693.72;;;8.06;100.00
69318;BME280;56457;52.190;4.440;2023-04-07T01:18:46;101694.66;;;8.08;100.00
69318;BME280;56457;52.190;4.440;2023-04-07T01:20:00;101696.34;;;8.06;100.00
69318;BME280;56457;52.190;4.440;2023-04-07T01:21:06;101696.34;;;8.06;100.00
69318;BME280;56457;52.190;4.440;2023-04-07T01:22:10;101692.91;;;8.07;100.00
69318;BME280;56457;52.190;4.440;2023-04-07T01:23:12;101695.56;;;8.10;100.00
69318;BME280;56457;52.190;4.440;2023-04-07T01:24:33;101698.25;;;8.17;100.00
69318;BME280;56457;52.190;4.440;2023-04-07T01:26:03;101697.38;;;8.15;100.00
69318;BME280;56457;52.190;4.440;2023-04-07T01:29:57;101693.97;;;8.20;100.00
69318;BME280;56457;52.190;4.440;2023-04-07T01:31:00;101696.53;;;8.19;100.00
69318;BME280;56457;52.190;4.440;2023-04-07T01:32:02;101689.56;;;8.19;100.00
69318;BME280;56457;52.190;4.440;2023-04-07T01:33:03;101694.00;;;8.22;100.00
69318;BME280;56457;52.190;4.440;2023-04-07T01:34:05;101696.69;;;8.26;100.00
69318;BME280;56457;52.190;4.440;2023-04-07T01:35:09;101697.50;;;8.24;100.00
69318;BME280;56457;52.190;4.440;2023-04-07T01:36:11;101691.41;;;8.23;100.00
69318;BME280;56457;52.190;4.440;2023-04-07T01:37:12;101687.03;;;8.24;100.00
69318;BME280;56457;52.190;4.440;2023-04-07T01:38:13;101688.00;;;8.29;100.00
69318;BME280;56457;52.190;4.440;2023-04-07T01:39:14;101691.47;;;8.28;100.00
69318;BME280;56457;52.190;4.440;2023-04-07T01:40:15;101692.34;;;8.27;100.00
69318;BME280;56457;52.190;4.440;2023-04-07T01:41:16;101692.34;;;8.27;100.00
69318;BME280;56457;52.190;4.440;2023-04-07T01:42:18;101688.78;;;8.25;100.00
69318;BME280;56457;52.190;4.440;2023-04-07T01:43:19;101680.91;;;8.22;100.00
69318;BME280;56457;52.190;4.440;2023-04-07T01:44:20;101690.59;;;8.27;100.00
69318;BME280;56457;52.190;4.440;2023-04-07T01:45:20;101683.53;;;8.22;100.00
69318;BME280;56457;52.190;4.440;2023-04-07T01:46:21;101678.31;;;8.22;100.00
69318;BME280;56457;52.190;4.440;2023-04-07T01:47:21;101687.94;;;8.26;100.00
69318;BME280;56457;52.190;4.440;2023-04-07T01:48:22;101679.28;;;8.28;100.00
69318;BME280;56457;52.190;4.440;2023-04-07T01:49:23;101688.00;;;8.30;100.00
69318;BME280;56457;52.190;4.440;2023-04-07T01:50:24;101686.28;;;8.31;100.00
69318;BME280;56457;52.190;4.440;2023-04-07T01:51:25;101680.16;;;8.30;100.00
69318;BME280;56457;52.190;4.440;2023-04-07T01:52:27;101684.53;;;8.31;100.00
69318;BME280;56457;52.190;4.440;2023-04-07T01:53:28;101685.47;;;8.33;100.00
69318;BME280;56457;52.190;4.440;2023-04-07T01:54:29;101688.13;;;8.36;100.00
69318;BME280;56457;52.190;4.440;2023-04-07T01:55:30;101683.75;;;8.35;100.00
69318;BME280;56457;52.190;4.440;2023-04-07T01:56:31;101682.78;;;8.32;100.00
69318;BME280;56457;52.190;4.440;2023-04-07T01:57:32;101680.13;;;8.27;100.00
69318;BME280;56457;52.190;4.440;2023-04-07T01:58:32;101685.31;;;8.26;100.00
69318;BME280;56457;52.190;4.440;2023-04-07T01:59:33;101684.50;;;8.27;100.00
69318;BME280;56457;52.190;4.440;2023-04-07T02:00:33;101682.75;;;8.27;100.00
69318;BME280;56457;52.190;4.440;2023-04-07T02:01:33;101679.22;;;8.25;100.00
69318;BME280;56457;52.190;4.440;2023-04-07T02:02:34;101688.75;;;8.20;100.00
69318;BME280;56457;52.190;4.440;2023-04-07T02:05:08;101681.69;;;8.16;100.00
69318;BME280;56457;52.190;4.440;2023-04-07T02:06:12;101679.03;;;8.13;100.00
69318;BME280;56457;52.190;4.440;2023-04-07T02:07:17;101684.22;;;8.10;100.00
69318;BME280;56457;52.190;4.440;2023-04-07T02:08:18;101679.88;;;8.12;100.00
69318;BME280;56457;52.190;4.440;2023-04-07T02:09:21;101685.09;;;8.09;100.00
69318;BME280;56457;52.190;4.440;2023-04-07T02:10:23;101685.97;;;8.09;100.00
69318;BME280;56457;52.190;4.440;2023-04-07T02:11:24;101689.44;;;8.10;100.00
69318;BME280;56457;52.190;4.440;2023-04-07T02:12:27;101680.72;;;8.08;100.00
69318;BME280;56457;52.190;4.440;2023-04-07T02:13:28;101691.09;;;8.05;100.00
69318;BME280;56457;52.190;4.440;2023-04-07T02:14:28;101687.63;;;8.04;100.00
69318;BME280;56457;52.190;4.440;2023-04-07T02:15:29;101694.69;;;8.12;100.00
69318;BME280;56457;52.190;4.440;2023-04-07T02:16:31;101681.59;;;8.10;100.00
69318;BME280;56457;52.190;4.440;2023-04-07T02:17:31;101692.03;;;8.08;100.00
69318;BME280;56457;52.190;4.440;2023-04-07T02:18:34;101695.63;;;8.14;100.00
69318;BME280;56457;52.190;4.440;2023-04-07T02:19:35;101694.66;;;8.08;100.00
69318;BME280;56457;52.190;4.440;2023-04-07T02:20:36;101692.06;;;8.12;100.00
69318;BME280;56457;52.190;4.440;2023-04-07T02:21:37;101707.78;;;8.13;100.00
69318;BME280;56457;52.190;4.440;2023-04-07T02:22:38;101698.25;;;8.17;100.00
69318;BME280;56457;52.190;4.440;2023-04-07T02:23:39;101699.13;;;8.16;100.00
69318;BME280;56457;52.190;4.440;2023-04-07T02:24:40;101703.50;;;8.17;100.00
69318;BME280;56457;52.190;4.440;2023-04-07T02:25:41;101709.69;;;8.23;100.00
69318;BME280;56457;52.190;4.440;2023-04-07T02:26:41;101701.84;;;8.23;100.00
69318;BME280;56457;52.190;4.440;2023-04-07T02:27:42;101704.53;;;8.28;100.00
69318;BME280;56457;52.190;4.440;2023-04-07T02:28:42;101697.56;;;8.27;100.00
69318;BME280;56457;52.190;4.440;2023-04-07T02:29:42;101701.06;;;8.27;100.00
69318;BME280;56457;52.190;4.440;2023-04-07T02:30:43;101703.69;;;8.29;100.00
69318;BME280;56457;52.190;4.440;2023-04-07T02:31:43;101702.81;;;8.28;100.00
69318;BME280;56457;52.190;4.440;2023-04-07T02:32:43;101701.94;;;8.28;100.00
69318;BME280;56457;52.190;4.440;2023-04-07T02:33:44;101708.19;;;8.36;100.00
69318;BME280;56457;52.190;4.440;2023-04-07T02:34:45;101697.66;;;8.33;100.00
69318;BME280;56457;52.190;4.440;2023-04-07T02:35:45;101699.41;;;8.34;100.00
69318;BME280;56457;52.190;4.440;2023-04-07T02:36:46;101702.78;;;8.27;100.00
69318;BME280;56457;52.190;4.440;2023-04-07T02:37:46;101698.44;;;8.27;100.00
69318;BME280;56457;52.190;4.440;2023-04-07T02:38:46;101696.69;;;8.28;100.00
69318;BME280;56457;52.190;4.440;2023-04-07T02:39:47;101700.22;;;8.30;100.00
69318;BME280;56457;52.190;4.440;2023-04-07T02:40:47;101701.94;;;8.28;100.00
69318;BME280;56457;52.190;4.440;2023-04-07T02:41:48;101698.53;;;8.35;100.00
69318;BME280;56457;52.190;4.440;2023-04-07T02:42:48;101703.72;;;8.32;100.00
69318;BME280;56457;52.190;4.440;2023-04-07T02:43:48;101706.38;;;8.35;100.00
69318;BME280;56457;52.190;4.440;2023-04-07T02:44:49;101705.50;;;8.34;100.00
69318;BME280;56457;52.190;4.440;2023-04-07T02:45:49;101705.56;;;8.36;100.00
69318;BME280;56457;52.190;4.440;2023-04-07T02:46:50;101701.22;;;8.36;100.00
69318;BME280;56457;52.190;4.440;2023-04-07T02:47:50;101698.59;;;8.36;100.00
69318;BME280;56457;52.190;4.440;2023-04-07T02:48:51;101702.03;;;8.34;100.00
69318;BME280;56457;52.190;4.440;2023-04-07T02:49:51;101703.94;;;8.44;100.00
69318;BME280;56457;52.190;4.440;2023-04-07T02:50:51;101698.69;;;8.44;100.00
69318;BME280;56457;52.190;4.440;2023-04-07T02:51:52;101698.69;;;8.44;100.00
69318;BME280;56457;52.190;4.440;2023-04-07T02:52:52;101699.53;;;8.40;100.00
69318;BME280;56457;52.190;4.440;2023-04-07T02:53:53;101701.28;;;8.40;100.00
69318;BME280;56457;52.190;4.440;2023-04-07T02:54:53;101701.31;;;8.43;100.00
69318;BME280;56457;52.190;4.440;2023-04-07T02:55:53;101705.72;;;8.47;100.00
69318;BME280;56457;52.190;4.440;2023-04-07T02:56:54;101711.81;;;8.46;100.00
69318;BME280;56457;52.190;4.440;2023-04-07T02:57:55;101705.63;;;8.41;100.00
69318;BME280;56457;52.190;4.440;2023-04-07T02:58:56;101710.03;;;8.43;100.00
69318;BME280;56457;52.190;4.440;2023-04-07T02:59:56;101707.47;;;8.45;100.00
69318;BME280;56457;52.190;4.440;2023-04-07T03:00:57;101697.81;;;8.42;100.00
69318;BME280;56457;52.190;4.440;2023-04-07T03:01:57;101707.38;;;8.40;100.00
69318;BME280;56457;52.190;4.440;2023-04-07T03:02:58;101703.00;;;8.39;100.00
69318;BME280;56457;52.190;4.440;2023-04-07T03:03:58;101707.47;;;8.48;100.00
69318;BME280;56457;52.190;4.440;2023-04-07T03:04:58;101707.41;;;8.43;100.00
69318;BME280;56457;52.190;4.440;2023-04-07T03:05:59;101706.50;;;8.41;100.00
69318;BME280;56457;52.190;4.440;2023-04-07T03:06:59;101706.50;;;8.40;100.00
69318;BME280;56457;52.190;4.440;2023-04-07T03:07:59;101702.97;;;8.38;100.00
69318;BME280;56457;52.190;4.440;2023-04-07T03:09:00;101712.53;;;8.37;100.00
69318;BME280;56457;52.190;4.440;2023-04-07T03:10:00;101709.94;;;8.37;100.00
69318;BME280;56457;52.190;4.440;2023-04-07T03:11:01;101723.97;;;8.44;100.00
69318;BME280;56457;52.190;4.440;2023-04-07T03:12:01;101712.72;;;8.49;100.00
69318;BME280;56457;52.190;4.440;2023-04-07T03:13:02;101712.63;;;8.43;100.00
69318;BME280;56457;52.190;4.440;2023-04-07T03:14:02;101710.88;;;8.41;100.00
69318;BME280;56457;52.190;4.440;2023-04-07T03:15:03;101716.13;;;8.44;100.00
69318;BME280;56457;52.190;4.440;2023-04-07T03:16:03;101723.16;;;8.45;100.00
69318;BME280;56457;52.190;4.440;2023-04-07T03:17:04;101716.03;;;8.36;100.00
69318;BME280;56457;52.190;4.440;2023-04-07T03:18:04;101718.59;;;8.34;100.00
69318;BME280;56457;52.190;4.440;2023-04-07T03:19:05;101720.31;;;8.34;100.00
69318;BME280;56457;52.190;4.440;2023-04-07T03:20:06;101724.75;;;8.38;100.00
69318;BME280;56457;52.190;4.440;2023-04-07T03:21:06;101715.31;;;8.45;100.00
69318;BME280;56457;52.190;4.440;2023-04-07T03:22:07;101715.25;;;8.43;100.00
69318;BME280;56457;52.190;4.440;2023-04-07T03:23:07;101720.47;;;8.42;100.00
69318;BME280;56457;52.190;4.440;2023-04-07T03:24:08;101719.53;;;8.38;100.00
69318;BME280;56457;52.190;4.440;2023-04-07T03:25:08;101721.25;;;8.38;100.00
69318;BME280;56457;52.190;4.440;2023-04-07T03:26:09;101711.69;;;8.38;100.00
69318;BME280;56457;52.190;4.440;2023-04-07T03:27:09;101717.72;;;8.34;100.00
69318;BME280;56457;52.190;4.440;2023-04-07T03:28:09;101717.72;;;8.34;100.00
69318;BME280;56457;52.190;4.440;2023-04-07T03:29:10;101712.59;;;8.39;100.00
69318;BME280;56457;52.190;4.440;2023-04-07T03:30:10;101713.41;;;8.36;100.00
69318;BME280;56457;52.190;4.440;2023-04-07T03:31:11;101721.13;;;8.30;100.00
69318;BME280;56457;52.190;4.440;2023-04-07T03:32:11;101707.97;;;8.25;100.00
69318;BME280;56457;52.190;4.440;2023-04-07T03:33:12;101713.25;;;8.28;100.00
69318;BME280;56457;52.190;4.440;2023-04-07T03:34:12;101722.00;;;8.32;100.00
69318;BME280;56457;52.190;4.440;2023-04-07T03:35:12;101710.72;;;8.33;100.00
69318;BME280;56457;52.190;4.440;2023-04-07T03:36:13;101710.66;;;8.30;100.00
69318;BME280;56457;52.190;4.440;2023-04-07T03:37:13;101710.66;;;8.30;100.00
69318;BME280;56457;52.190;4.440;2023-04-07T03:38:13;101714.13;;;8.29;100.00
69318;BME280;56457;52.190;4.440;2023-04-07T03:39:14;101714.97;;;8.26;100.00
69318;BME280;56457;52.190;4.440;2023-04-07T03:40:15;101708.81;;;8.23;100.00
69318;BME280;56457;52.190;4.440;2023-04-07T03:41:15;101701.88;;;8.25;100.00
69318;BME280;56457;52.190;4.440;2023-04-07T03:42:15;101707.09;;;8.25;100.00
69318;BME280;56457;52.190;4.440;2023-04-07T03:43:18;101708.91;;;8.27;100.00
69318;BME280;56457;52.190;4.440;2023-04-07T03:44:18;101708.03;;;8.28;100.00
69318;BME280;56457;52.190;4.440;2023-04-07T03:45:19;101708.03;;;8.30;100.00
69318;BME280;56457;52.190;4.440;2023-04-07T03:46:19;101701.94;;;8.28;100.00
69318;BME280;56457;52.190;4.440;2023-04-07T03:47:20;101709.69;;;8.23;100.00
69318;BME280;56457;52.190;4.440;2023-04-07T03:48:21;101702.81;;;8.28;100.00
69318;BME280;56457;52.190;4.440;2023-04-07T03:49:22;101706.38;;;8.33;100.00
69318;BME280;56457;52.190;4.440;2023-04-07T03:50:22;101702.06;;;8.35;100.00
69318;BME280;56457;52.190;4.440;2023-04-07T03:51:23;101696.84;;;8.35;100.00
69318;BME280;56457;52.190;4.440;2023-04-07T03:52:23;101699.47;;;8.35;100.00
69318;BME280;56457;52.190;4.440;2023-04-07T03:53:23;101703.69;;;8.29;100.00
69318;BME280;56457;52.190;4.440;2023-04-07T03:54:24;101697.72;;;8.36;100.00
69318;BME280;56457;52.190;4.440;2023-04-07T03:55:25;101699.31;;;8.26;100.00
69318;BME280;56457;52.190;4.440;2023-04-07T03:56:25;101712.38;;;8.26;100.00
69318;BME280;56457;52.190;4.440;2023-04-07T03:57:26;101707.09;;;8.25;100.00
69318;BME280;56457;52.190;4.440;2023-04-07T03:58:27;101708.03;;;8.27;100.00
69318;BME280;56457;52.190;4.440;2023-04-07T03:59:27;101711.50;;;8.27;100.00
69318;BME280;56457;52.190;4.440;2023-04-07T04:00:27;101710.63;;;8.27;100.00
69318;BME280;56457;52.190;4.440;2023-04-07T04:01:30;101711.50;;;8.27;100.00
69318;BME280;56457;52.190;4.440;2023-04-07T04:02:30;101715.91;;;8.30;100.00
69318;BME280;56457;52.190;4.440;2023-04-07T04:03:31;101719.41;;;8.32;100.00
69318;BME280;56457;52.190;4.440;2023-04-07T04:04:31;101718.50;;;8.28;100.00
69318;BME280;56457;52.190;4.440;2023-04-07T04:05:32;101717.63;;;8.28;100.00
69318;BME280;56457;52.190;4.440;2023-04-07T04:06:32;101725.47;;;8.28;100.00
69318;BME280;56457;52.190;4.440;2023-04-07T04:07:32;101720.31;;;8.32;100.00
69318;BME280;56457;52.190;4.440;2023-04-07T04:08:33;101723.81;;;8.34;100.00
69318;BME280;56457;52.190;4.440;2023-04-07T04:09:33;101718.53;;;8.31;100.00
69318;BME280;56457;52.190;4.440;2023-04-07T04:10:34;101716.69;;;8.26;100.00
69318;BME280;56457;52.190;4.440;2023-04-07T04:11:34;101715.84;;;8.27;100.00
69318;BME280;56457;52.190;4.440;2023-04-07T04:12:35;101721.97;;;8.27;100.00
69318;BME280;56457;52.190;4.440;2023-04-07T04:13:36;101721.09;;;8.27;100.00
69318;BME280;56457;52.190;4.440;2023-04-07T04:14:36;101726.34;;;8.28;100.00
69318;BME280;56457;52.190;4.440;2023-04-07T04:15:37;101721.25;;;8.36;100.00
69318;BME280;56457;52.190;4.440;2023-04-07T04:16:37;101719.47;;;8.35;100.00
69318;BME280;56457;52.190;4.440;2023-04-07T04:17:37;101722.94;;;8.32;100.00
69318;BME280;56457;52.190;4.440;2023-04-07T04:18:38;101714.13;;;8.29;100.00
69318;BME280;56457;52.190;4.440;2023-04-07T04:19:38;101729.91;;;8.35;100.00
69318;BME280;56457;52.190;4.440;2023-04-07T04:20:38;101723.94;;;8.39;100.00
69318;BME280;56457;52.190;4.440;2023-04-07T04:21:39;101725.66;;;8.39;100.00
69318;BME280;56457;52.190;4.440;2023-04-07T04:22:39;101723.00;;;8.37;100.00
69318;BME280;56457;52.190;4.440;2023-04-07T04:23:40;101729.16;;;8.39;100.00
69318;BME280;56457;52.190;4.440;2023-04-07T04:24:40;101724.81;;;8.40;100.00
69318;BME280;56457;52.190;4.440;2023-04-07T04:25:41;101730.84;;;8.35;100.00
69318;BME280;56457;52.190;4.440;2023-04-07T04:26:41;101729.03;;;8.33;100.00
69318;BME280;56457;52.190;4.440;2023-04-07T04:27:41;101736.81;;;8.31;100.00
69318;BME280;56457;52.190;4.440;2023-04-07T04:28:42;101735.06;;;8.30;100.00
69318;BME280;56457;52.190;4.440;2023-04-07T04:29:42;101735.09;;;8.32;100.00
69318;BME280;56457;52.190;4.440;2023-04-07T04:30:43;101729.84;;;8.32;100.00
69318;BME280;56457;52.190;4.440;2023-04-07T04:31:43;101742.94;;;8.32;100.00
69318;BME280;56457;52.190;4.440;2023-04-07T04:32:43;101730.69;;;8.29;100.00
69318;BME280;56457;52.190;4.440;2023-04-07T04:33:44;101737.66;;;8.29;100.00
69318;BME280;56457;52.190;4.440;2023-04-07T04:34:44;101730.66;;;8.26;100.00
69318;BME280;56457;52.190;4.440;2023-04-07T04:35:45;101728.94;;;8.28;100.00
69318;BME280;56457;52.190;4.440;2023-04-07T04:36:46;101729.84;;;8.30;100.00
69318;BME280;56457;52.190;4.440;2023-04-07T04:37:48;101730.66;;;8.26;100.00
69318;BME280;56457;52.190;4.440;2023-04-07T04:38:48;101734.16;;;8.27;100.00
69318;BME280;56457;52.190;4.440;2023-04-07T04:39:49;101723.69;;;8.27;100.00
69318;BME280;56457;52.190;4.440;2023-04-07T04:40:49;101722.81;;;8.26;100.00
69318;BME280;56457;52.190;4.440;2023-04-07T04:41:50;101717.59;;;8.26;100.00
69318;BME280;56457;52.190;4.440;2023-04-07T04:42:50;101717.63;;;8.28;100.00
69318;BME280;56457;52.190;4.440;2023-04-07T04:43:51;101708.91;;;8.29;100.00
69318;BME280;56457;52.190;4.440;2023-04-07T04:44:51;101712.47;;;8.34;100.00
69318;BME280;56457;52.190;4.440;2023-04-07T04:45:52;101717.66;;;8.31;100.00
69318;BME280;56457;52.190;4.440;2023-04-07T04:46:53;101720.22;;;8.28;100.00
69318;BME280;56457;52.190;4.440;2023-04-07T04:47:53;101710.66;;;8.30;100.00
69318;BME280;56457;52.190;4.440;2023-04-07T04:48:54;101718.50;;;8.30;100.00
69318;BME280;56457;52.190;4.440;2023-04-07T04:49:55;101717.63;;;8.29;100.00
69318;BME280;56457;52.190;4.440;2023-04-07T04:50:55;101716.84;;;8.33;100.00
69318;BME280;56457;52.190;4.440;2023-04-07T04:51:56;101720.31;;;8.32;100.00
69318;BME280;56457;52.190;4.440;2023-04-07T04:52:56;101725.47;;;8.29;100.00
69318;BME280;56457;52.190;4.440;2023-04-07T04:53:57;101735.94;;;8.29;100.00
69318;BME280;56457;52.190;4.440;2023-04-07T04:54:57;101724.69;;;8.35;100.00
69318;BME280;56457;52.190;4.440;2023-04-07T04:55:57;101733.41;;;8.34;100.00
69318;BME280;56457;52.190;4.440;2023-04-07T04:56:58;101736.94;;;8.36;100.00
69318;BME280;56457;52.190;4.440;2023-04-07T04:57:58;101725.66;;;8.39;100.00
69318;BME280;56457;52.190;4.440;2023-04-07T04:58:59;101730.78;;;8.34;100.00
69318;BME280;56457;52.190;4.440;2023-04-07T04:59:59;101729.84;;;8.32;100.00
69318;BME280;56457;52.190;4.440;2023-04-07T05:00:59;101728.97;;;8.31;100.00
69318;BME280;56457;52.190;4.440;2023-04-07T05:02:00;101725.63;;;8.37;100.00
69318;BME280;56457;52.190;4.440;2023-04-07T05:03:00;101731.59;;;8.31;100.00
69318;BME280;56457;52.190;4.440;2023-04-07T05:04:02;101728.94;;;8.28;100.00
69318;BME280;56457;52.190;4.440;2023-04-07T05:05:02;101730.66;;;8.26;100.00
69318;BME280;56457;52.190;4.440;2023-04-07T05:06:03;101730.59;;;8.22;100.00
69318;BME280;56457;52.190;4.440;2023-04-07T05:07:03;101730.59;;;8.23;100.00
69318;BME280;56457;52.190;4.440;2023-04-07T05:08:04;101736.72;;;8.25;100.00
69318;BME280;56457;52.190;4.440;2023-04-07T05:09:04;101732.34;;;8.24;100.00
69318;BME280;56457;52.190;4.440;2023-04-07T05:10:05;101732.34;;;8.24;100.00
69318;BME280;56457;52.190;4.440;2023-04-07T05:11:06;101738.47;;;8.25;100.00
69318;BME280;56457;52.190;4.440;2023-04-07T05:12:06;101735.00;;;8.26;100.00
69318;BME280;56457;52.190;4.440;2023-04-07T05:13:07;101735.94;;;8.29;100.00
69318;BME280;56457;52.190;4.440;2023-04-07T05:14:07;101742.09;;;8.33;100.00
69318;BME280;56457;52.190;4.440;2023-04-07T05:15:08;101736.94;;;8.36;100.00
69318;BME280;56457;52.190;4.440;2023-04-07T05:16:08;101736.88;;;8.33;100.00
69318;BME280;56457;52.190;4.440;2023-04-07T05:17:08;101728.97;;;8.31;100.00
69318;BME280;56457;52.190;4.440;2023-04-07T05:18:09;101730.75;;;8.32;100.00
69318;BME280;56457;52.190;4.440;2023-04-07T05:19:10;101733.38;;;8.32;100.00
69318;BME280;56457;52.190;4.440;2023-04-07T05:20:10;101735.19;;;8.36;100.00
69318;BME280;56457;52.190;4.440;2023-04-07T05:21:11;101734.28;;;8.34;100.00
69318;BME280;56457;52.190;4.440;2023-04-07T05:22:11;101741.28;;;8.35;100.00
69318;BME280;56457;52.190;4.440;2023-04-07T05:23:11;101735.16;;;8.35;100.00
69318;BME280;56457;52.190;4.440;2023-04-07T05:24:12;101742.16;;;8.36;100.00
69318;BME280;56457;52.190;4.440;2023-04-07T05:25:12;101729.03;;;8.33;100.00
69318;BME280;56457;52.190;4.440;2023-04-07T05:26:12;101738.69;;;8.37;100.00
69318;BME280;56457;52.190;4.440;2023-04-07T05:27:13;101743.19;;;8.46;100.00